Time;durP1;ratioP1;P1;durP2;ratioP2;P2;SDS_P1;SDS_P2;PMS_P1;PMS_P2;Temp;Humidity;BMP_temperature;BMP_pressure;BME280_temperature;BME280_humidity;BME280_pressure;Samples;Min_cycle;Max_cycle;Signal;HPM_P1;HPM_P2
2022/11/03 00:01:37;;;;;;;8.88;1.50;;;11.20;99.90;;;;;;4227656;28;20085;-87
2022/11/03 00:03:38;;;;;;;4.78;1.45;;;11.20;99.90;;;;;;4234229;28;20044;-86
2022/11/03 00:08:01;;;;;;;16.45;3.42;;;11.20;99.90;;;;;;4233875;28;20517;-87
2022/11/03 00:10:02;;;;;;;12.50;1.48;;;11.20;99.90;;;;;;4234392;28;20105;-86
2022/11/03 00:12:03;;;;;;;7.32;2.05;;;10.90;99.90;;;;;;4232477;28;20043;-86
2022/11/03 00:14:04;;;;;;;5.13;1.52;;;11.20;99.90;;;;;;4232889;28;20036;-87
2022/11/03 00:16:06;;;;;;;8.73;1.42;;;11.20;99.90;;;;;;4215528;28;20052;-87
2022/11/03 00:18:07;;;;;;;8.20;2.03;;;11.40;99.90;;;;;;4215833;28;20587;-86
2022/11/03 00:20:09;;;;;;;9.38;1.45;;;11.20;99.90;;;;;;4220871;28;20039;-87
2022/11/03 00:22:11;;;;;;;7.40;2.15;;;11.20;99.90;;;;;;4214935;28;20078;-87
2022/11/03 00:24:12;;;;;;;9.15;1.63;;;11.20;99.90;;;;;;4233723;28;20043;-86
2022/11/03 00:26:20;;;;;;;8.30;1.15;;;11.20;99.90;;;;;;4232333;28;20069;-86
2022/11/03 00:28:20;;;;;;;10.70;1.80;;;11.20;99.90;;;;;;4232582;28;20060;-86
2022/11/03 00:30:21;;;;;;;10.82;1.77;;;11.20;99.90;;;;;;4232578;28;20489;-86
2022/11/03 00:32:22;;;;;;;9.27;1.70;;;11.20;99.90;;;;;;4232209;28;20520;-86
2022/11/03 00:34:23;;;;;;;7.95;1.67;;;11.20;99.90;;;;;;4233345;28;20075;-87
2022/11/03 00:36:26;;;;;;;11.35;1.90;;;11.20;99.90;;;;;;4233344;28;20044;-86
2022/11/03 00:38:28;;;;;;;7.93;2.22;;;11.10;99.90;;;;;;4231933;28;20035;-87
2022/11/03 00:40:29;;;;;;;10.70;1.77;;;11.20;99.90;;;;;;4215538;28;20059;-86
2022/11/03 00:42:29;;;;;;;8.80;2.03;;;11.20;99.90;;;;;;4233031;28;20047;-87
2022/11/03 00:44:31;;;;;;;12.25;1.63;;;11.10;99.90;;;;;;4214976;28;20502;-86
2022/11/03 00:46:34;;;;;;;10.30;2.03;;;11.10;99.90;;;;;;4233925;28;20047;-87
2022/11/03 00:48:36;;;;;;;10.15;1.52;;;11.10;99.90;;;;;;4232074;28;20058;-87
2022/11/03 00:50:37;;;;;;;8.38;2.28;;;11.10;99.90;;;;;;4217360;28;20127;-87
2022/11/03 00:52:38;;;;;;;11.05;1.85;;;11.10;99.90;;;;;;4208145;28;20052;-87
2022/11/03 00:54:39;;;;;;;7.88;1.55;;;11.10;99.90;;;;;;4213225;28;20048;-87
2022/11/03 00:56:41;;;;;;;9.23;1.27;;;11.10;99.90;;;;;;4231807;28;20052;-86
2022/11/03 00:58:42;;;;;;;9.10;1.73;;;11.10;99.90;;;;;;4232047;28;20050;-86
2022/11/03 01:00:43;;;;;;;4.22;1.42;;;11.10;99.90;;;;;;4232380;28;20056;-86
2022/11/03 01:02:45;;;;;;;10.15;2.00;;;11.10;99.90;;;;;;4232193;28;20555;-86
2022/11/03 01:07:06;;;;;;;7.45;1.77;;;11.10;99.90;;;;;;4232735;28;20485;-86
2022/11/03 01:09:07;;;;;;;8.63;1.40;;;11.10;99.90;;;;;;4231856;28;20416;-86
2022/11/03 01:13:28;;;;;;;8.80;1.77;;;11.10;99.90;;;;;;4229445;28;20051;-86
2022/11/03 01:15:28;;;;;;;12.57;1.58;;;11.10;99.90;;;;;;4231567;28;20596;-86
2022/11/03 01:17:30;;;;;;;8.10;1.50;;;11.00;99.90;;;;;;4232146;28;20032;-86
2022/11/03 01:19:32;;;;;;;11.60;1.55;;;11.00;99.90;;;;;;4232623;28;20130;-86
2022/11/03 01:21:33;;;;;;;7.28;2.47;;;11.00;99.90;;;;;;4232590;28;20039;-86
2022/11/03 01:23:34;;;;;;;9.98;1.40;;;11.00;99.90;;;;;;4231061;28;20553;-86
2022/11/03 01:25:35;;;;;;;9.55;1.77;;;11.00;99.90;;;;;;4230668;28;20468;-85
2022/11/03 01:27:35;;;;;;;7.80;2.08;;;11.00;99.90;;;;;;4230571;28;20054;-85
2022/11/03 01:29:37;;;;;;;6.07;1.05;;;11.00;99.90;;;;;;4227819;28;20031;-85
2022/11/03 01:31:38;;;;;;;10.07;2.30;;;11.00;99.90;;;;;;4238434;27;20147;-85
2022/11/03 01:33:41;;;;;;;8.63;1.50;;;11.00;99.90;;;;;;4231108;28;20050;-85
2022/11/03 01:35:41;;;;;;;8.10;1.30;;;11.00;99.90;;;;;;4230456;28;20051;-85
2022/11/03 01:37:42;;;;;;;10.85;1.63;;;11.00;99.90;;;;;;4230996;28;20113;-86
2022/11/03 01:39:43;;;;;;;11.63;1.40;;;11.00;99.90;;;;;;4231017;28;20062;-85
2022/11/03 01:41:47;;;;;;;8.05;1.50;;;11.00;99.90;;;;;;4230663;28;20048;-85
2022/11/03 01:44:10;;;;;;;9.27;2.20;;;11.00;99.90;;;;;;4231457;28;20099;-85
2022/11/03 01:46:20;;;;;;;9.27;1.40;;;11.00;99.90;;;;;;4227457;28;20043;-86
2022/11/03 01:48:23;;;;;;;5.75;1.42;;;11.00;99.90;;;;;;4230920;28;20047;-86
2022/11/03 01:50:24;;;;;;;14.82;2.13;;;11.00;99.90;;;;;;4230769;28;20125;-86
2022/11/03 01:52:35;;;;;;;10.50;1.30;;;11.00;99.90;;;;;;4224151;28;20127;-85
2022/11/03 01:54:39;;;;;;;15.35;1.83;;;11.00;99.90;;;;;;4213501;28;20477;-86
2022/11/03 01:56:45;;;;;;;9.68;1.80;;;10.90;99.90;;;;;;4213501;28;20105;-85
2022/11/03 01:58:48;;;;;;;17.63;2.67;;;10.90;99.90;;;;;;4213493;28;20133;-86
2022/11/03 02:00:53;;;;;;;10.88;2.15;;;10.90;99.90;;;;;;4215122;28;20032;-85
2022/11/03 02:02:54;;;;;;;9.35;1.70;;;10.90;99.90;;;;;;4229967;28;20039;-85
2022/11/03 02:04:59;;;;;;;9.57;1.92;;;10.90;99.90;;;;;;4214144;28;20496;-85
2022/11/03 02:07:26;;;;;;;11.75;2.70;;;10.90;99.90;;;;;;4217796;28;20051;-85
2022/11/03 02:09:27;;;;;;;11.93;1.98;;;10.90;99.90;;;;;;4230228;28;20055;-85
2022/11/03 02:13:49;;;;;;;7.72;1.48;;;10.90;99.90;;;;;;4214991;28;20052;-85
2022/11/03 02:15:53;;;;;;;7.88;1.35;;;10.90;99.90;;;;;;4205391;28;20079;-85
2022/11/03 02:17:55;;;;;;;17.70;1.80;;;10.80;99.90;;;;;;4214132;28;20052;-85
2022/11/03 02:20:06;;;;;;;7.47;1.45;;;10.80;99.90;;;;;;4221449;28;20450;-85
2022/11/03 02:22:16;;;;;;;11.15;1.52;;;10.80;99.90;;;;;;4232170;28;20092;-84
2022/11/03 02:24:41;;;;;;;7.50;1.80;;;10.80;99.90;;;;;;4232945;28;20047;-84
2022/11/03 02:26:46;;;;;;;11.30;2.08;;;10.80;99.90;;;;;;4235949;28;20058;-84
2022/11/03 02:28:47;;;;;;;10.38;1.40;;;10.80;99.90;;;;;;4234978;28;20081;-84
2022/11/03 02:31:02;;;;;;;7.57;1.60;;;10.80;99.90;;;;;;4236182;28;20035;-85
2022/11/03 02:33:16;;;;;;;7.80;1.48;;;10.80;99.90;;;;;;4235374;28;20074;-84
2022/11/03 02:35:48;;;;;;;5.57;1.50;;;10.80;99.90;;;;;;4223523;28;20051;-85
2022/11/03 02:37:54;;;;;;;11.85;1.83;;;10.80;99.90;;;;;;4231766;28;20055;-85
2022/11/03 02:40:02;;;;;;;9.98;1.80;;;10.80;99.90;;;;;;4233404;28;20044;-84
2022/11/03 02:42:07;;;;;;;15.18;2.70;;;10.80;99.90;;;;;;4240200;28;20050;-85
2022/11/03 02:44:15;;;;;;;10.68;1.98;;;10.80;99.90;;;;;;4233306;28;20051;-85
2022/11/03 02:46:17;;;;;;;4.90;1.27;;;10.80;99.90;;;;;;4231775;28;20548;-85
2022/11/03 02:48:18;;;;;;;10.88;1.90;;;10.80;99.90;;;;;;4230673;28;20051;-84
2022/11/03 02:50:24;;;;;;;9.52;1.85;;;10.80;99.90;;;;;;4231779;27;20090;-85
2022/11/03 02:52:43;;;;;;;12.20;2.33;;;10.80;99.90;;;;;;4232249;28;20110;-85
2022/11/03 02:54:45;;;;;;;7.15;1.70;;;10.80;99.90;;;;;;4227699;28;20039;-84
2022/11/03 02:56:52;;;;;;;10.93;1.20;;;10.80;99.90;;;;;;4221997;28;20374;-84
2022/11/03 02:58:59;;;;;;;7.40;1.45;;;10.80;99.90;;;;;;4232259;28;20096;-84
2022/11/03 03:01:27;;;;;;;10.20;1.45;;;10.80;99.90;;;;;;4231564;28;20047;-85
2022/11/03 03:03:42;;;;;;;11.57;1.95;;;10.80;99.90;;;;;;4231243;28;20123;-85
2022/11/03 03:05:45;;;;;;;6.97;1.27;;;10.80;99.90;;;;;;4231084;28;20055;-85
2022/11/03 03:07:51;;;;;;;8.38;1.75;;;10.80;99.90;;;;;;4230878;28;20051;-84
2022/11/03 03:10:10;;;;;;;12.85;2.90;;;10.90;99.90;;;;;;4223890;28;20051;-84
2022/11/03 03:12:16;;;;;;;6.90;1.90;;;10.90;99.90;;;;;;4231399;28;20079;-85
2022/11/03 03:14:26;;;;;;;41.05;1.98;;;10.90;99.90;;;;;;4232743;28;20048;-84
2022/11/03 03:16:34;;;;;;;18.48;2.50;;;10.90;99.90;;;;;;4233184;28;20055;-85
2022/11/03 03:19:11;;;;;;;10.70;1.55;;;10.90;99.90;;;;;;4232753;28;20565;-85
2022/11/03 03:21:20;;;;;;;14.60;1.90;;;10.90;99.90;;;;;;4234527;28;20059;-85
2022/11/03 03:23:24;;;;;;;11.48;2.13;;;10.90;99.90;;;;;;4234880;28;20130;-86
2022/11/03 03:25:33;;;;;;;9.57;2.38;;;10.90;99.90;;;;;;4234967;28;20135;-86
2022/11/03 03:27:35;;;;;;;;;;;11.00;99.90;;;;;;4231764;28;20052;-86
2022/11/03 03:29:45;;;;;;;15.15;1.52;;;11.00;99.90;;;;;;4236294;28;19920;-86
2022/11/03 03:32:00;;;;;;;8.38;2.08;;;11.00;99.90;;;;;;4251359;28;20043;-85
2022/11/03 03:34:02;;;;;;;17.40;3.03;;;11.00;99.90;;;;;;4235613;28;20088;-84
2022/11/03 03:36:06;;;;;;;13.48;2.28;;;11.00;99.90;;;;;;4234205;28;20079;-86
2022/11/03 03:38:13;;;;;;;8.10;1.30;;;11.10;99.90;;;;;;4231029;28;20083;-85
2022/11/03 03:40:23;;;;;;;15.57;1.48;;;11.00;99.90;;;;;;4231681;28;20055;-85
2022/11/03 03:42:27;;;;;;;13.27;1.83;;;11.00;99.90;;;;;;4230028;28;20118;-85
2022/11/03 03:44:29;;;;;;;8.98;1.52;;;11.00;99.90;;;;;;4218863;28;20044;-85
2022/11/03 03:47:04;;;;;;;11.18;1.95;;;11.00;99.90;;;;;;4247729;28;20570;-85
2022/11/03 03:49:06;;;;;;;9.02;1.65;;;11.00;99.90;;;;;;4230197;28;20063;-85
2022/11/03 03:51:07;;;;;;;8.32;1.50;;;11.00;99.90;;;;;;4232205;28;20200;-85
2022/11/03 03:53:12;;;;;;;7.50;1.60;;;11.00;99.90;;;;;;4231696;28;20036;-85
2022/11/03 03:55:17;;;;;;;5.57;1.38;;;11.00;99.90;;;;;;4230539;28;20036;-85
2022/11/03 03:57:21;;;;;;;11.18;1.50;;;11.00;99.90;;;;;;4231158;28;20127;-85
2022/11/03 03:59:21;;;;;;;4.60;1.13;;;11.00;99.90;;;;;;4230040;28;20055;-85
2022/11/03 04:01:22;;;;;;;9.57;1.67;;;11.00;99.90;;;;;;4230754;28;20036;-86
2022/11/03 04:03:25;;;;;;;9.82;1.27;;;11.10;99.90;;;;;;4227405;28;20040;-85
2022/11/03 04:05:26;;;;;;;8.93;1.35;;;11.10;99.90;;;;;;4229120;28;20101;-86
2022/11/03 04:09:46;;;;;;;6.28;1.20;;;11.10;99.90;;;;;;4229750;28;20060;-86
2022/11/03 04:23:30;;;;;;;7.70;1.52;;;11.10;99.90;;;;;;4231786;28;20048;-85
2022/11/03 04:25:30;;;;;;;5.07;1.50;;;11.10;99.90;;;;;;4232581;28;20497;-86
2022/11/03 04:27:34;;;;;;;11.07;1.75;;;11.00;99.90;;;;;;4233482;28;20070;-85
2022/11/03 04:29:35;;;;;;;7.30;1.38;;;11.20;99.90;;;;;;4233866;28;20142;-85
2022/11/03 04:31:36;;;;;;;14.45;2.80;;;11.10;99.90;;;;;;4232307;28;20059;-85
2022/11/03 04:33:37;;;;;;;6.13;2.05;;;11.10;99.90;;;;;;4233256;27;20043;-86
2022/11/03 04:35:38;;;;;;;4.45;1.38;;;11.10;99.90;;;;;;4232146;28;20074;-85
2022/11/03 04:37:38;;;;;;;8.45;1.67;;;11.10;99.90;;;;;;4229400;28;20047;-86
2022/11/03 04:39:40;;;;;;;6.15;1.73;;;11.00;99.90;;;;;;4218403;28;20044;-86
2022/11/03 04:41:41;;;;;;;11.65;2.22;;;11.00;99.90;;;;;;4231941;28;20039;-85
2022/11/03 04:43:43;;;;;;;4.82;1.35;;;11.10;99.90;;;;;;4222209;28;20079;-86
2022/11/03 04:45:46;;;;;;;10.13;1.60;;;11.10;99.90;;;;;;4218186;28;20114;-85
2022/11/03 04:47:48;;;;;;;12.07;1.63;;;11.10;99.90;;;;;;4232534;28;20047;-85
2022/11/03 04:49:48;;;;;;;16.38;2.13;;;11.00;99.90;;;;;;4232056;28;20126;-87
2022/11/03 04:51:50;;;;;;;11.48;2.10;;;11.00;99.90;;;;;;4231686;28;20104;-86
2022/11/03 04:54:03;;;;;;;8.52;2.13;;;11.00;99.90;;;;;;4232130;28;20142;-85
2022/11/03 04:56:14;;;;;;;10.15;1.90;;;11.10;99.90;;;;;;4210608;28;20120;-85
2022/11/03 04:58:20;;;;;;;11.88;2.45;;;11.10;99.90;;;;;;4233019;28;20047;-86
2022/11/03 05:00:21;;;;;;;9.43;1.38;;;11.10;99.90;;;;;;4233440;28;20047;-85
2022/11/03 05:02:21;;;;;;;7.47;1.35;;;11.00;99.90;;;;;;4231910;28;20047;-85
2022/11/03 05:04:22;;;;;;;8.75;1.98;;;11.00;99.90;;;;;;4233144;28;20147;-85
2022/11/03 05:06:28;;;;;;;6.95;1.50;;;11.00;99.90;;;;;;4233357;28;20386;-85
2022/11/03 05:08:29;;;;;;;10.60;2.38;;;11.00;99.90;;;;;;4232844;28;20397;-84
2022/11/03 05:10:30;;;;;;;6.93;1.77;;;11.00;99.90;;;;;;4214451;28;20184;-85
2022/11/03 05:12:32;;;;;;;11.43;1.98;;;11.00;99.90;;;;;;4232646;28;20051;-86
2022/11/03 05:14:33;;;;;;;10.27;2.97;;;11.00;99.90;;;;;;4227698;28;20063;-87
2022/11/03 05:16:34;;;;;;;10.02;1.60;;;11.00;99.90;;;;;;4231062;28;20503;-86
2022/11/03 05:18:39;;;;;;;8.77;1.73;;;10.90;99.90;;;;;;4225051;28;20048;-85
2022/11/03 05:20:57;;;;;;;8.68;1.40;;;10.90;99.90;;;;;;4231217;28;20055;-85
2022/11/03 05:22:59;;;;;;;9.57;1.50;;;10.90;99.90;;;;;;4227194;28;20397;-85
2022/11/03 05:25:20;;;;;;;10.15;2.20;;;10.90;99.90;;;;;;4223214;28;20082;-85
2022/11/03 05:27:21;;;;;;;6.40;1.35;;;10.90;99.90;;;;;;4232748;28;20047;-85
2022/11/03 05:29:28;;;;;;;11.20;1.40;;;10.90;99.90;;;;;;4227777;28;20083;-86
2022/11/03 05:31:33;;;;;;;4.15;1.00;;;10.90;99.90;;;;;;4223381;28;20044;-85
2022/11/03 05:33:34;;;;;;;7.40;2.00;;;10.80;99.90;;;;;;4231476;28;20101;-85
2022/11/03 05:35:35;;;;;;;6.80;1.35;;;10.80;99.90;;;;;;4231582;28;20510;-86
2022/11/03 05:37:36;;;;;;;13.00;2.15;;;10.80;99.90;;;;;;4232812;28;20050;-85
2022/11/03 05:39:42;;;;;;;4.85;1.45;;;10.80;99.90;;;;;;4232724;28;20502;-85
2022/11/03 05:41:43;;;;;;;16.45;2.00;;;10.80;99.90;;;;;;4231666;28;20073;-85
2022/11/03 05:43:43;;;;;;;11.93;1.50;;;10.80;99.90;;;;;;4233104;28;20043;-85
2022/11/03 05:45:45;;;;;;;8.65;2.13;;;10.80;99.90;;;;;;4228818;28;20047;-86
2022/11/03 05:47:47;;;;;;;14.57;2.00;;;10.90;99.90;;;;;;4215121;28;20040;-85
2022/11/03 05:49:51;;;;;;;13.68;2.10;;;10.80;99.90;;;;;;4208632;28;20040;-86
2022/11/03 05:51:52;;;;;;;7.80;1.42;;;10.80;99.90;;;;;;4213573;28;20145;-85
2022/11/03 05:53:56;;;;;;;11.52;1.77;;;10.80;99.90;;;;;;4232118;28;20048;-85
2022/11/03 05:56:04;;;;;;;9.60;1.95;;;10.80;99.90;;;;;;4231534;28;20053;-86
2022/11/03 05:58:24;;;;;;;12.18;1.42;;;10.80;99.90;;;;;;4231852;28;20052;-85
2022/11/03 06:00:31;;;;;;;9.48;2.05;;;10.80;99.90;;;;;;4230137;28;20043;-85
2022/11/03 06:02:31;;;;;;;7.32;1.65;;;10.70;99.90;;;;;;4215282;28;20072;-85
2022/11/03 06:04:36;;;;;;;9.63;2.00;;;10.80;99.90;;;;;;4221754;28;20253;-85
2022/11/03 06:06:37;;;;;;;10.10;1.63;;;10.70;99.90;;;;;;4232057;28;20409;-85
2022/11/03 06:08:38;;;;;;;6.40;1.40;;;10.70;99.90;;;;;;4230777;28;20104;-85
2022/11/03 06:10:47;;;;;;;9.07;1.85;;;10.70;99.90;;;;;;4230241;28;20112;-85
2022/11/03 06:12:48;;;;;;;6.80;1.30;;;10.70;99.90;;;;;;4229585;28;20114;-85
2022/11/03 06:14:49;;;;;;;11.00;2.63;;;10.70;99.90;;;;;;4232011;28;20043;-86
2022/11/03 06:17:04;;;;;;;6.63;1.42;;;10.70;99.90;;;;;;4226140;28;20493;-85
2022/11/03 06:19:19;;;;;;;7.10;1.85;;;10.70;99.90;;;;;;4220121;28;20104;-85
2022/11/03 06:21:24;;;;;;;11.02;1.67;;;10.70;99.90;;;;;;4225874;28;20051;-85
2022/11/03 06:23:25;;;;;;;5.88;1.33;;;10.80;99.90;;;;;;4223383;28;20040;-87
2022/11/03 06:25:30;;;;;;;9.48;2.15;;;10.70;99.90;;;;;;4222003;28;20040;-87
2022/11/03 06:27:33;;;;;;;5.85;1.40;;;10.80;99.90;;;;;;4230567;28;20055;-87
2022/11/03 06:29:34;;;;;;;10.77;2.08;;;10.80;99.90;;;;;;4214635;28;20493;-86
2022/11/03 06:31:37;;;;;;;11.77;1.67;;;10.80;99.90;;;;;;4223233;28;20052;-87
2022/11/03 06:33:38;;;;;;;7.72;1.55;;;10.80;99.90;;;;;;4231314;28;20397;-87
2022/11/03 06:35:39;;;;;;;9.18;1.40;;;10.80;99.90;;;;;;4224842;28;20114;-86
2022/11/03 06:37:40;;;;;;;8.93;1.85;;;10.80;99.90;;;;;;4214347;28;20079;-86
2022/11/03 06:39:41;;;;;;;9.23;2.25;;;10.80;99.90;;;;;;4216029;28;20079;-85
2022/11/03 06:41:42;;;;;;;17.10;2.25;;;10.80;99.90;;;;;;4231265;28;20095;-86
2022/11/03 06:43:42;;;;;;;4.68;1.77;;;10.90;99.90;;;;;;4229814;28;20105;-85
2022/11/03 06:45:53;;;;;;;4.60;1.52;;;10.90;99.90;;;;;;4229964;28;20032;-86
2022/11/03 06:47:55;;;;;;;8.40;1.90;;;10.80;99.90;;;;;;4214106;28;20069;-85
2022/11/03 06:49:57;;;;;;;6.68;1.63;;;10.90;99.90;;;;;;4224548;28;20139;-85
2022/11/03 06:52:19;;;;;;;10.32;2.35;;;10.90;99.90;;;;;;4231630;28;20070;-85
2022/11/03 06:54:20;;;;;;;8.68;2.13;;;10.80;99.90;;;;;;4239229;28;20156;-88
2022/11/03 06:56:23;;;;;;;8.85;1.42;;;10.90;99.90;;;;;;4235848;28;20073;-86
2022/11/03 06:58:33;;;;;;;7.05;1.67;;;10.90;99.90;;;;;;4233395;28;20051;-88
2022/11/03 07:00:38;;;;;;;8.63;2.03;;;10.90;99.90;;;;;;4232018;28;20477;-87
2022/11/03 07:02:56;;;;;;;7.18;2.13;;;10.90;99.90;;;;;;4223462;28;20512;-86
2022/11/03 07:04:58;;;;;;;5.30;1.60;;;10.90;99.90;;;;;;4218519;28;20048;-86
2022/11/03 07:07:01;;;;;;;8.25;1.88;;;10.90;99.90;;;;;;4237125;28;20047;-85
2022/11/03 07:09:12;;;;;;;10.73;2.25;;;11.00;99.90;;;;;;4240075;28;20154;-85
2022/11/03 07:11:18;;;;;;;8.70;1.40;;;11.00;99.90;;;;;;4240036;28;20044;-86
2022/11/03 07:13:23;;;;;;;8.32;1.83;;;11.00;99.90;;;;;;4237341;28;20039;-84
2022/11/03 07:15:32;;;;;;;9.75;1.60;;;11.00;99.90;;;;;;4233183;28;20047;-86
2022/11/03 07:17:33;;;;;;;;;;;11.00;99.90;;;;;;4231517;28;20047;-85
2022/11/03 07:19:37;;;;;;;10.52;2.30;;;11.00;99.90;;;;;;4230134;28;19920;-85
2022/11/03 07:21:48;;;;;;;10.02;1.80;;;11.10;99.90;;;;;;4233299;28;20135;-86
2022/11/03 07:23:52;;;;;;;14.75;2.35;;;11.00;99.90;;;;;;4232458;28;20504;-85
2022/11/03 07:25:56;;;;;;;14.10;2.75;;;11.10;99.90;;;;;;4233090;28;20044;-86
2022/11/03 07:28:00;;;;;;;13.18;1.58;;;11.10;99.90;;;;;;4230545;28;20428;-86
2022/11/03 07:30:07;;;;;;;6.47;2.58;;;11.10;99.90;;;;;;4231601;28;20047;-86
2022/11/03 07:32:17;;;;;;;5.45;1.40;;;11.10;99.90;;;;;;4231572;28;20043;-86
2022/11/03 07:34:21;;;;;;;11.57;1.60;;;11.20;99.90;;;;;;4231760;28;20036;-86
2022/11/03 07:36:23;;;;;;;11.25;1.40;;;11.20;99.90;;;;;;4229299;28;20144;-86
2022/11/03 07:38:26;;;;;;;15.20;1.75;;;11.20;99.90;;;;;;4230064;28;20460;-85
2022/11/03 07:40:30;;;;;;;9.50;2.28;;;11.20;99.90;;;;;;4232062;28;20123;-85
2022/11/03 07:42:36;;;;;;;11.98;1.98;;;11.30;99.90;;;;;;4235861;28;20048;-85
2022/11/03 07:44:38;;;;;;;5.28;1.70;;;11.30;99.90;;;;;;4216240;28;20032;-85
2022/11/03 07:46:39;;;;;;;6.03;1.83;;;11.30;99.90;;;;;;4224863;28;20118;-85
2022/11/03 07:48:52;;;;;;;10.25;1.38;;;11.40;99.90;;;;;;4232179;28;20043;-85
2022/11/03 07:50:55;;;;;;;7.82;2.00;;;11.40;99.90;;;;;;4231640;28;20044;-84
2022/11/03 07:52:56;;;;;;;13.80;2.50;;;11.50;99.90;;;;;;4231191;28;20054;-85
2022/11/03 07:54:58;;;;;;;9.32;2.22;;;11.50;99.90;;;;;;4231181;28;20118;-84
2022/11/03 07:57:04;;;;;;;17.80;3.33;;;11.50;99.90;;;;;;4231622;28;20488;-84
2022/11/03 07:59:08;;;;;;;11.88;2.55;;;11.40;99.90;;;;;;4233963;28;20122;-85
2022/11/03 08:01:27;;;;;;;12.32;2.28;;;11.60;99.90;;;;;;4232267;28;20047;-85
2022/11/03 08:03:41;;;;;;;6.97;1.45;;;11.60;99.90;;;;;;4220284;28;20048;-86
2022/11/03 08:05:42;;;;;;;5.35;1.63;;;11.60;99.90;;;;;;4217557;28;20146;-86
2022/11/03 08:07:43;;;;;;;6.63;1.77;;;11.70;99.90;;;;;;4228150;28;20043;-86
2022/11/03 08:09:44;;;;;;;13.15;3.00;;;11.70;99.90;;;;;;4239092;28;20113;-86
2022/11/03 08:11:47;;;;;;;12.40;1.85;;;11.50;99.90;;;;;;4236640;28;20423;-85
2022/11/03 08:13:49;;;;;;;11.40;2.10;;;11.70;99.90;;;;;;4224150;27;20044;-85
2022/11/03 08:15:50;;;;;;;10.63;1.85;;;11.80;99.90;;;;;;4221296;28;20088;-88
2022/11/03 08:17:50;;;;;;;8.45;1.70;;;11.80;99.90;;;;;;4222477;28;20079;-87
2022/11/03 08:19:51;;;;;;;12.05;2.50;;;11.90;99.90;;;;;;4230542;28;20044;-90
2022/11/03 08:21:54;;;;;;;9.40;1.70;;;11.80;99.90;;;;;;4230480;28;20063;-90
2022/11/03 08:23:55;;;;;;;9.63;1.55;;;12.00;99.90;;;;;;4234702;28;20047;-89
2022/11/03 08:25:56;;;;;;;6.28;1.48;;;12.00;99.90;;;;;;4225486;28;20051;-89
2022/11/03 08:28:03;;;;;;;9.30;2.00;;;12.10;99.90;;;;;;4220103;28;20044;-89
2022/11/03 08:30:05;;;;;;;7.07;1.80;;;12.20;99.90;;;;;;4235328;28;20105;-89
2022/11/03 08:32:07;;;;;;;7.55;2.35;;;12.40;99.90;;;;;;4235066;28;20497;-90
2022/11/03 08:34:08;;;;;;;6.38;2.28;;;12.50;99.90;;;;;;4230208;28;20048;-88
2022/11/03 08:36:10;;;;;;;10.75;1.83;;;12.70;99.90;;;;;;4219035;28;20043;-89
2022/11/03 08:38:10;;;;;;;9.55;1.92;;;13.00;99.90;;;;;;4215209;28;20055;-90
2022/11/03 08:40:12;;;;;;;9.48;2.13;;;13.10;99.90;;;;;;4216483;28;20071;-90
2022/11/03 08:42:13;;;;;;;8.07;2.25;;;13.10;99.90;;;;;;4231060;28;20062;-89
2022/11/03 08:44:14;;;;;;;5.85;2.53;;;13.40;99.90;;;;;;4220102;28;20052;-90
2022/11/03 08:46:14;;;;;;;12.32;2.65;;;13.70;99.90;;;;;;4222148;28;20047;-89
2022/11/03 08:48:15;;;;;;;13.85;2.58;;;14.00;99.90;;;;;;4234878;28;20040;-91
2022/11/03 08:50:16;;;;;;;10.05;1.83;;;13.80;99.90;;;;;;4235291;28;20517;-90
2022/11/03 08:52:18;;;;;;;7.95;1.67;;;13.90;99.90;;;;;;4216744;28;20048;-91
2022/11/03 08:54:21;;;;;;;9.50;1.70;;;14.00;99.90;;;;;;4233914;28;20405;-92
2022/11/03 08:56:23;;;;;;;8.38;2.00;;;14.10;99.90;;;;;;4234084;28;20561;-91
2022/11/03 08:58:26;;;;;;;7.40;1.60;;;14.20;99.90;;;;;;4228069;28;20123;-90
2022/11/03 09:00:26;;;;;;;4.65;1.50;;;14.20;99.90;;;;;;4218270;28;20506;-91
2022/11/03 09:02:27;;;;;;;12.00;2.40;;;14.30;99.90;;;;;;4232522;28;20044;-90
2022/11/03 09:04:28;;;;;;;9.63;1.38;;;13.90;99.90;;;;;;4216447;28;20089;-89
2022/11/03 09:06:29;;;;;;;9.93;2.00;;;14.00;99.90;;;;;;4234816;28;20039;-90
2022/11/03 09:08:30;;;;;;;5.38;1.50;;;13.90;99.90;;;;;;4233417;28;20079;-89
2022/11/03 09:10:35;;;;;;;5.78;1.48;;;12.70;99.90;;;;;;4236876;28;20740;-90
2022/11/03 09:12:37;;;;;;;9.63;1.30;;;14.00;99.90;;;;;;4218773;28;20039;-90
2022/11/03 09:14:38;;;;;;;6.82;1.50;;;13.60;99.90;;;;;;4235098;28;20531;-89
2022/11/03 09:16:39;;;;;;;10.45;1.70;;;13.60;99.90;;;;;;4235823;28;20048;-91
2022/11/03 09:18:39;;;;;;;15.00;1.95;;;13.50;99.90;;;;;;4236351;28;20048;-91
2022/11/03 09:20:40;;;;;;;14.85;2.05;;;13.40;99.90;;;;;;4237560;28;20050;-92
2022/11/03 09:22:41;;;;;;;10.68;2.30;;;13.40;99.90;;;;;;4241842;28;20057;-88
2022/11/03 09:24:48;;;;;;;4.75;1.67;;;13.40;99.90;;;;;;4243360;28;20051;-90
2022/11/03 09:26:48;;;;;;;10.07;1.80;;;13.30;99.90;;;;;;4229145;28;20108;-89
2022/11/03 09:28:49;;;;;;;10.57;1.88;;;13.40;99.90;;;;;;4249453;28;20043;-88
2022/11/03 09:30:50;;;;;;;9.02;2.42;;;13.40;99.90;;;;;;4247459;28;20051;-88
2022/11/03 09:32:51;;;;;;;8.60;1.52;;;13.30;99.90;;;;;;4247620;28;20039;-89
2022/11/03 09:34:52;;;;;;;4.68;1.13;;;13.40;99.90;;;;;;4231512;28;20078;-90
2022/11/03 09:36:53;;;;;;;8.48;1.67;;;13.40;99.90;;;;;;4242085;28;20075;-89
2022/11/03 09:38:54;;;;;;;15.05;2.40;;;13.50;99.90;;;;;;4230682;28;20075;-89
2022/11/03 09:40:57;;;;;;;14.63;2.15;;;13.50;99.90;;;;;;4243231;28;20043;-89
2022/11/03 09:43:00;;;;;;;10.52;1.90;;;12.30;99.90;;;;;;4247142;28;20063;-90
2022/11/03 09:45:01;;;;;;;15.23;2.67;;;13.50;99.90;;;;;;4246723;28;20054;-90
2022/11/03 09:47:03;;;;;;;10.20;2.05;;;13.60;99.90;;;;;;4230400;28;20043;-90
2022/11/03 09:49:14;;;;;;;9.13;1.73;;;13.60;99.90;;;;;;4224499;28;20043;-90
2022/11/03 09:51:19;;;;;;;14.10;2.35;;;13.70;99.90;;;;;;4238068;28;20054;-91
2022/11/03 09:53:21;;;;;;;8.82;1.70;;;13.80;99.90;;;;;;4201563;28;20044;-90
2022/11/03 09:55:26;;;;;;;8.07;2.28;;;13.80;99.90;;;;;;4217930;28;20109;-90
2022/11/03 09:57:33;;;;;;;8.45;2.05;;;13.90;99.90;;;;;;4219460;28;20497;-91
2022/11/03 09:59:37;;;;;;;5.30;1.90;;;13.80;99.90;;;;;;4221074;28;20048;-92
2022/11/03 10:01:37;;;;;;;7.78;1.63;;;13.80;99.90;;;;;;4218953;28;20486;-91
2022/11/03 10:03:40;;;;;;;17.33;2.85;;;14.00;99.90;;;;;;4200374;28;20094;-91
2022/11/03 10:05:43;;;;;;;7.65;1.50;;;14.00;99.90;;;;;;4217561;28;20556;-92
2022/11/03 10:07:44;;;;;;;9.18;2.53;;;14.00;99.90;;;;;;4217629;28;20055;-91
2022/11/03 10:09:48;;;;;;;7.85;1.58;;;14.30;99.90;;;;;;4203403;28;20040;-91
2022/11/03 10:11:51;;;;;;;11.65;1.92;;;14.20;99.90;;;;;;4234511;28;20040;-92
2022/11/03 10:13:55;;;;;;;12.45;2.08;;;13.30;99.90;;;;;;4217244;28;20048;-92
2022/11/03 10:16:00;;;;;;;10.40;1.90;;;14.30;99.90;;;;;;4217027;28;20063;-92
2022/11/03 10:18:07;;;;;;;8.18;1.77;;;14.40;99.90;;;;;;4217326;28;20559;-92
2022/11/03 10:20:13;;;;;;;6.93;1.63;;;14.40;99.90;;;;;;4234304;28;20043;-90
2022/11/03 10:22:15;;;;;;;7.60;1.30;;;14.40;99.90;;;;;;4233069;28;20124;-90
2022/11/03 10:24:17;;;;;;;9.30;1.83;;;14.40;99.90;;;;;;4234536;28;20043;-90
2022/11/03 10:26:19;;;;;;;6.50;1.42;;;14.40;99.90;;;;;;4217118;28;20055;-90
2022/11/03 10:28:27;;;;;;;9.35;2.30;;;14.50;99.90;;;;;;4215969;28;20044;-89
2022/11/03 10:30:29;;;;;;;6.55;1.30;;;14.50;99.90;;;;;;4215815;28;20054;-91
2022/11/03 10:32:33;;;;;;;10.98;2.33;;;14.50;99.90;;;;;;4233751;28;20117;-90
2022/11/03 10:34:36;;;;;;;10.63;1.75;;;14.50;99.90;;;;;;4232881;28;20057;-90
2022/11/03 10:36:36;;;;;;;10.65;1.65;;;14.50;99.90;;;;;;4235627;28;20128;-91
2022/11/03 10:38:38;;;;;;;6.68;1.38;;;14.50;99.90;;;;;;4233260;28;20104;-91
2022/11/03 10:40:40;;;;;;;11.13;1.83;;;14.50;99.90;;;;;;4216831;28;20048;-92
2022/11/03 10:42:57;;;;;;;8.68;1.50;;;14.50;99.90;;;;;;4232491;28;20086;-91
2022/11/03 10:45:19;;;;;;;5.20;1.33;;;14.60;99.90;;;;;;4218842;28;20047;-91
2022/11/03 10:47:32;;;;;;;7.63;2.13;;;14.60;99.90;;;;;;4217928;28;20044;-91
2022/11/03 10:49:37;;;;;;;8.02;2.13;;;14.70;99.90;;;;;;4225780;28;20515;-91
2022/11/03 10:51:39;;;;;;;9.23;3.00;;;14.70;99.90;;;;;;4215734;28;20469;-92
2022/11/03 10:53:41;;;;;;;8.80;1.50;;;14.80;99.90;;;;;;4233936;28;20117;-90
2022/11/03 10:55:42;;;;;;;10.02;1.80;;;14.80;99.90;;;;;;4224335;28;20165;-90
2022/11/03 10:57:43;;;;;;;7.75;1.88;;;14.90;99.90;;;;;;4217015;28;20036;-90
2022/11/03 10:59:49;;;;;;;10.57;1.40;;;15.10;99.90;;;;;;4200602;28;20048;-90
2022/11/03 11:01:50;;;;;;;7.85;1.80;;;15.30;99.90;;;;;;4226566;28;20044;-91
2022/11/03 11:03:51;;;;;;;8.50;1.88;;;15.40;99.90;;;;;;4232758;28;20074;-90
2022/11/03 11:05:52;;;;;;;4.82;1.42;;;15.50;99.90;;;;;;4216080;28;20052;-90
2022/11/03 11:07:53;;;;;;;6.70;2.13;;;15.50;99.90;;;;;;4215561;28;20154;-90